• Join FlightAware (Why Join?)
  • Login
  • US Flag 
01:32PM EDT


 

Airport Tracker/Info


-or-


 

Live Flight TrackerFlight Track Log ✈ N521LL ✈ 21-Apr-2013 ✈ KMAF - KLBB

Flight Track Log - Related Links

Times and Time Zones

All times are in EDT time to prevent confusion due to time zone crossing. See the N521LL flight status page for this flight to view local times or setup timezone preferences in your user account.

Time Position Orientation Groundspeed Altitude Reporting Facility
EDT Latitude Longitude Course Direction KTS MPH feet Rate Location/Type
06:37PM 32.2236 -102.2189 10° North 324 373 12,900  Level Fort Worth Center
06:38PM 32.3317 -102.1088 14° North  Level FlightAware Approximate
06:38PM 32.3081 -102.1914 15° North 346 398 13,000  Level Fort Worth Center
06:39PM 32.3974 -102.0891 14° North  Level FlightAware Approximate
06:39PM 32.3967 -102.1692 12° North 351 404 12,900  Level Fort Worth Center
06:40PM 32.4647 -102.0833 North  Level FlightAware Approximate
06:40PM 32.4872 -102.1444 13° North 340 391 12,900  Level Fort Worth Center
06:41PM 32.5311 -102.0673 12° North  Level FlightAware Approximate
06:41PM 32.5739 -102.1194 14° North 328 377 12,900  Level Fort Worth Center
06:42PM 32.6625 -102.0967 12° North 315 362 12,900  Level Fort Worth Center
06:43PM 32.7489 -102.0717 14° North 320 368 12,900  Level Fort Worth Center
06:43PM 32.7953 -102.0592 13° North 324 373 12,900  Level Fort Worth Center
06:44PM 32.8375 -102.0467 14° North 320 368 12,900  Level Fort Worth Center
06:44PM 32.8964 -102.0347 10° North 321 369 12,900  Level Fort Worth Center
06:45PM 32.9281 -102.0267 12° North 320 368 12,900  Level Fort Worth Center
06:45PM 32.9872 -102.0072 15° North 337 388 12,900  Level Fort Worth Center
06:46PM 33.0167 -102.0014 North 325 374 12,900  Level Fort Worth Center
06:46PM 33.0778 -101.9822 15° North 335 386 12,900  Level Fort Worth Center
06:47PM 33.1136 -101.9717 14° North 331 381 12,900  Level Fort Worth Center
06:47PM 33.1683 -101.9597 10° North 336 387 12,900  Level Fort Worth Center
06:48PM 33.1978 -101.9536 10° North 331 381 12,900 -300 Level Fort Worth Center
06:48PM 33.2583 -101.9494 North 327 376 12,600 -1,020 Descending Fort Worth Center
06:49PM 33.2964 -101.9414 10° North 331 381 11,900 -1,680 Descending Fort Worth Center
06:49PM 33.3467 -101.9367 North 305 351 10,900 -1,500 Descending Fort Worth Center
06:50PM 33.3697 -101.9278 18° North 309 356 10,400 -2,100 Descending Fort Worth Center
06:50PM 33.4306 -101.9183 North 288 331 8,800 -2,100 Descending Fort Worth Center
06:51PM 33.4561 -101.9097 16° North 288 331 8,300 -1,500 Descending Fort Worth Center
06:51PM 33.5083 -101.9025 North 284 327 7,300 -1,200 Descending Fort Worth Center
06:52PM 33.5253 -101.8958 18° North 283 326 7,100 -1,140 Descending Fort Worth Center
06:52PM 33.5819 -101.8889 North 271 312 6,200 -1,020 Descending Fort Worth Center
06:53PM 33.6050 -101.8850 North 273 314 6,100 -840 Descending Fort Worth Center
06:53PM 33.6489 -101.8847 360° North 204 235 5,300 -1,020 Descending Fort Worth Center
06:54PM 33.6994 -101.8747 North 158 182 4,300 -960 Descending Fort Worth Center
06:55PM 33.6925 -101.8319 101° East 141 162 3,500 -840 Descending Fort Worth Center
06:56PM 33.6822 -101.8314 177° South 65 75 3,300 -240 Descending Fort Worth Center
06:57PM 33.6614 -101.8306 178° South 37 43 3,200 -60 Descending Fort Worth Center
06:58PM 33.6592 -101.8303 174° South 42 48 3,200  Level Fort Worth Center